sensor_id;sensor_type;location;lat;lon;timestamp;P1;durP1;ratioP1;P2;durP2;ratioP2
11539;SDS011;5826;54.756;9.192;2023-04-03T00:00:03;3.40;;;1.40;;
11539;SDS011;5826;54.756;9.192;2023-04-03T00:02:30;3.57;;;1.53;;
11539;SDS011;5826;54.756;9.192;2023-04-03T00:04:56;1.80;;;1.47;;
11539;SDS011;5826;54.756;9.192;2023-04-03T00:07:21;2.50;;;1.23;;
11539;SDS011;5826;54.756;9.192;2023-04-03T00:09:47;2.23;;;1.40;;
11539;SDS011;5826;54.756;9.192;2023-04-03T00:12:12;4.53;;;1.80;;
11539;SDS011;5826;54.756;9.192;2023-04-03T00:14:38;3.77;;;1.40;;
11539;SDS011;5826;54.756;9.192;2023-04-03T00:17:03;2.17;;;1.23;;
11539;SDS011;5826;54.756;9.192;2023-04-03T00:19:29;3.10;;;1.60;;
11539;SDS011;5826;54.756;9.192;2023-04-03T00:21:54;2.83;;;1.30;;
11539;SDS011;5826;54.756;9.192;2023-04-03T00:24:20;2.47;;;1.20;;
11539;SDS011;5826;54.756;9.192;2023-04-03T00:26:46;4.33;;;1.67;;
11539;SDS011;5826;54.756;9.192;2023-04-03T00:29:11;2.20;;;1.30;;
11539;SDS011;5826;54.756;9.192;2023-04-03T00:31:37;2.53;;;1.60;;
11539;SDS011;5826;54.756;9.192;2023-04-03T00:34:02;3.20;;;1.40;;
11539;SDS011;5826;54.756;9.192;2023-04-03T00:36:28;3.90;;;1.50;;
11539;SDS011;5826;54.756;9.192;2023-04-03T00:38:53;3.13;;;1.50;;
11539;SDS011;5826;54.756;9.192;2023-04-03T00:41:19;2.60;;;1.60;;
11539;SDS011;5826;54.756;9.192;2023-04-03T00:43:45;3.83;;;1.70;;
11539;SDS011;5826;54.756;9.192;2023-04-03T00:46:10;3.87;;;1.70;;
11539;SDS011;5826;54.756;9.192;2023-04-03T00:48:38;3.10;;;1.70;;
11539;SDS011;5826;54.756;9.192;2023-04-03T00:51:16;2.60;;;1.60;;
11539;SDS011;5826;54.756;9.192;2023-04-03T00:56:18;2.53;;;1.73;;
11539;SDS011;5826;54.756;9.192;2023-04-03T00:58:48;3.10;;;1.50;;
11539;SDS011;5826;54.756;9.192;2023-04-03T01:01:20;2.20;;;1.70;;
11539;SDS011;5826;54.756;9.192;2023-04-03T01:03:49;2.90;;;1.60;;
11539;SDS011;5826;54.756;9.192;2023-04-03T01:06:16;2.60;;;1.73;;
11539;SDS011;5826;54.756;9.192;2023-04-03T01:08:45;3.30;;;1.60;;
11539;SDS011;5826;54.756;9.192;2023-04-03T01:11:13;2.37;;;1.60;;
11539;SDS011;5826;54.756;9.192;2023-04-03T01:13:38;2.67;;;1.80;;
11539;SDS011;5826;54.756;9.192;2023-04-03T01:16:05;3.03;;;1.90;;
11539;SDS011;5826;54.756;9.192;2023-04-03T01:18:31;2.60;;;1.50;;
11539;SDS011;5826;54.756;9.192;2023-04-03T01:27:00;4.50;;;1.70;;
11539;SDS011;5826;54.756;9.192;2023-04-03T01:29:27;2.60;;;1.30;;
11539;SDS011;5826;54.756;9.192;2023-04-03T01:31:54;3.43;;;1.80;;
11539;SDS011;5826;54.756;9.192;2023-04-03T01:34:24;3.83;;;1.60;;
11539;SDS011;5826;54.756;9.192;2023-04-03T01:36:51;4.40;;;1.50;;
11539;SDS011;5826;54.756;9.192;2023-04-03T01:39:17;3.53;;;1.57;;
11539;SDS011;5826;54.756;9.192;2023-04-03T01:41:43;2.23;;;1.53;;
11539;SDS011;5826;54.756;9.192;2023-04-03T01:44:09;3.47;;;1.90;;
11539;SDS011;5826;54.756;9.192;2023-04-03T01:46:35;3.40;;;1.77;;
11539;SDS011;5826;54.756;9.192;2023-04-03T01:49:02;2.53;;;1.33;;
11539;SDS011;5826;54.756;9.192;2023-04-03T01:51:28;2.70;;;1.53;;
11539;SDS011;5826;54.756;9.192;2023-04-03T01:53:54;2.40;;;1.70;;
11539;SDS011;5826;54.756;9.192;2023-04-03T01:56:19;2.20;;;1.33;;
11539;SDS011;5826;54.756;9.192;2023-04-03T01:58:45;3.33;;;1.60;;
11539;SDS011;5826;54.756;9.192;2023-04-03T02:01:10;3.20;;;1.77;;
11539;SDS011;5826;54.756;9.192;2023-04-03T02:03:36;1.80;;;1.53;;
11539;SDS011;5826;54.756;9.192;2023-04-03T02:06:01;2.83;;;1.40;;
11539;SDS011;5826;54.756;9.192;2023-04-03T02:08:27;3.70;;;1.50;;
11539;SDS011;5826;54.756;9.192;2023-04-03T02:10:52;2.40;;;1.43;;
11539;SDS011;5826;54.756;9.192;2023-04-03T02:13:18;2.03;;;1.57;;
11539;SDS011;5826;54.756;9.192;2023-04-03T02:15:44;3.53;;;1.47;;
11539;SDS011;5826;54.756;9.192;2023-04-03T02:18:10;2.53;;;1.47;;
11539;SDS011;5826;54.756;9.192;2023-04-03T02:20:36;3.27;;;1.87;;
11539;SDS011;5826;54.756;9.192;2023-04-03T02:23:02;4.00;;;1.63;;
11539;SDS011;5826;54.756;9.192;2023-04-03T02:25:28;4.03;;;1.90;;
11539;SDS011;5826;54.756;9.192;2023-04-03T02:27:55;2.67;;;1.60;;
11539;SDS011;5826;54.756;9.192;2023-04-03T02:30:21;2.27;;;1.60;;
11539;SDS011;5826;54.756;9.192;2023-04-03T02:32:46;3.27;;;1.60;;
11539;SDS011;5826;54.756;9.192;2023-04-03T02:35:12;2.60;;;1.50;;
11539;SDS011;5826;54.756;9.192;2023-04-03T02:37:37;3.27;;;1.80;;
11539;SDS011;5826;54.756;9.192;2023-04-03T02:40:03;2.73;;;1.50;;
11539;SDS011;5826;54.756;9.192;2023-04-03T02:42:30;2.30;;;1.70;;
11539;SDS011;5826;54.756;9.192;2023-04-03T02:44:56;2.67;;;1.50;;
11539;SDS011;5826;54.756;9.192;2023-04-03T02:47:22;2.07;;;1.50;;
11539;SDS011;5826;54.756;9.192;2023-04-03T02:49:47;2.83;;;1.73;;
11539;SDS011;5826;54.756;9.192;2023-04-03T02:52:13;3.10;;;1.70;;
11539;SDS011;5826;54.756;9.192;2023-04-03T02:54:39;3.10;;;1.90;;
11539;SDS011;5826;54.756;9.192;2023-04-03T02:57:05;3.23;;;1.60;;
11539;SDS011;5826;54.756;9.192;2023-04-03T02:59:32;3.07;;;1.63;;
11539;SDS011;5826;54.756;9.192;2023-04-03T03:01:58;2.33;;;1.57;;
11539;SDS011;5826;54.756;9.192;2023-04-03T03:04:23;2.47;;;1.50;;
11539;SDS011;5826;54.756;9.192;2023-04-03T03:06:49;3.03;;;1.50;;
11539;SDS011;5826;54.756;9.192;2023-04-03T03:09:15;3.07;;;1.87;;
11539;SDS011;5826;54.756;9.192;2023-04-03T03:11:41;4.10;;;1.60;;
11539;SDS011;5826;54.756;9.192;2023-04-03T03:14:06;4.30;;;1.70;;
11539;SDS011;5826;54.756;9.192;2023-04-03T03:16:32;3.07;;;1.87;;
11539;SDS011;5826;54.756;9.192;2023-04-03T03:18:58;3.83;;;1.77;;
11539;SDS011;5826;54.756;9.192;2023-04-03T03:21:23;2.60;;;1.53;;
11539;SDS011;5826;54.756;9.192;2023-04-03T03:23:49;4.87;;;1.87;;
11539;SDS011;5826;54.756;9.192;2023-04-03T03:26:14;2.70;;;1.80;;
11539;SDS011;5826;54.756;9.192;2023-04-03T03:28:40;1.73;;;1.33;;
11539;SDS011;5826;54.756;9.192;2023-04-03T03:31:06;4.70;;;2.00;;
11539;SDS011;5826;54.756;9.192;2023-04-03T03:33:32;3.60;;;1.90;;
11539;SDS011;5826;54.756;9.192;2023-04-03T03:35:57;3.10;;;1.73;;
11539;SDS011;5826;54.756;9.192;2023-04-03T03:38:23;5.20;;;1.90;;
11539;SDS011;5826;54.756;9.192;2023-04-03T03:40:49;3.60;;;2.07;;
11539;SDS011;5826;54.756;9.192;2023-04-03T03:43:16;4.67;;;2.03;;
11539;SDS011;5826;54.756;9.192;2023-04-03T03:45:42;3.90;;;1.90;;
11539;SDS011;5826;54.756;9.192;2023-04-03T03:48:08;2.77;;;1.90;;
11539;SDS011;5826;54.756;9.192;2023-04-03T03:50:34;4.27;;;1.97;;
11539;SDS011;5826;54.756;9.192;2023-04-03T03:52:59;2.10;;;1.60;;
11539;SDS011;5826;54.756;9.192;2023-04-03T03:55:25;3.53;;;2.10;;
11539;SDS011;5826;54.756;9.192;2023-04-03T03:57:51;5.43;;;1.83;;
11539;SDS011;5826;54.756;9.192;2023-04-03T04:00:16;4.17;;;2.00;;
11539;SDS011;5826;54.756;9.192;2023-04-03T04:02:42;5.07;;;2.00;;
11539;SDS011;5826;54.756;9.192;2023-04-03T04:05:08;2.90;;;1.70;;
11539;SDS011;5826;54.756;9.192;2023-04-03T04:07:34;3.17;;;1.90;;
11539;SDS011;5826;54.756;9.192;2023-04-03T04:09:59;4.07;;;2.00;;
11539;SDS011;5826;54.756;9.192;2023-04-03T04:12:25;2.90;;;1.80;;
11539;SDS011;5826;54.756;9.192;2023-04-03T04:14:51;3.57;;;2.10;;
11539;SDS011;5826;54.756;9.192;2023-04-03T04:17:16;5.87;;;2.73;;
11539;SDS011;5826;54.756;9.192;2023-04-03T04:19:41;6.00;;;3.00;;
11539;SDS011;5826;54.756;9.192;2023-04-03T04:22:07;4.30;;;2.53;;
11539;SDS011;5826;54.756;9.192;2023-04-03T04:24:32;4.20;;;2.30;;
11539;SDS011;5826;54.756;9.192;2023-04-03T04:26:58;3.73;;;2.20;;
11539;SDS011;5826;54.756;9.192;2023-04-03T04:29:24;2.93;;;2.10;;
11539;SDS011;5826;54.756;9.192;2023-04-03T04:31:49;3.07;;;1.67;;
11539;SDS011;5826;54.756;9.192;2023-04-03T04:34:15;3.07;;;2.07;;
11539;SDS011;5826;54.756;9.192;2023-04-03T04:36:40;2.67;;;1.80;;
11539;SDS011;5826;54.756;9.192;2023-04-03T04:39:07;3.10;;;1.67;;
11539;SDS011;5826;54.756;9.192;2023-04-03T04:41:33;3.67;;;2.10;;
11539;SDS011;5826;54.756;9.192;2023-04-03T04:43:59;2.97;;;1.80;;
11539;SDS011;5826;54.756;9.192;2023-04-03T04:46:25;4.60;;;1.93;;
11539;SDS011;5826;54.756;9.192;2023-04-03T04:48:51;8.77;;;2.27;;
11539;SDS011;5826;54.756;9.192;2023-04-03T04:51:17;3.27;;;2.07;;
11539;SDS011;5826;54.756;9.192;2023-04-03T04:53:44;3.83;;;2.20;;
11539;SDS011;5826;54.756;9.192;2023-04-03T04:56:09;3.93;;;2.17;;
11539;SDS011;5826;54.756;9.192;2023-04-03T04:58:35;4.53;;;2.03;;
11539;SDS011;5826;54.756;9.192;2023-04-03T05:01:02;4.07;;;2.00;;
11539;SDS011;5826;54.756;9.192;2023-04-03T05:03:29;4.93;;;2.23;;
11539;SDS011;5826;54.756;9.192;2023-04-03T05:05:55;3.70;;;2.00;;
11539;SDS011;5826;54.756;9.192;2023-04-03T05:08:21;4.07;;;2.07;;
11539;SDS011;5826;54.756;9.192;2023-04-03T05:10:46;3.30;;;2.17;;
11539;SDS011;5826;54.756;9.192;2023-04-03T05:13:12;4.73;;;2.30;;
11539;SDS011;5826;54.756;9.192;2023-04-03T05:15:38;3.77;;;3.00;;
11539;SDS011;5826;54.756;9.192;2023-04-03T05:18:03;6.47;;;3.43;;
11539;SDS011;5826;54.756;9.192;2023-04-03T05:20:30;5.43;;;2.80;;
11539;SDS011;5826;54.756;9.192;2023-04-03T05:22:55;4.90;;;2.80;;
11539;SDS011;5826;54.756;9.192;2023-04-03T05:25:21;4.67;;;2.60;;
11539;SDS011;5826;54.756;9.192;2023-04-03T05:27:47;2.57;;;2.10;;
11539;SDS011;5826;54.756;9.192;2023-04-03T05:30:12;5.13;;;2.97;;
11539;SDS011;5826;54.756;9.192;2023-04-03T05:32:38;4.50;;;2.50;;
11539;SDS011;5826;54.756;9.192;2023-04-03T05:35:04;3.43;;;2.40;;
11539;SDS011;5826;54.756;9.192;2023-04-03T05:37:30;3.07;;;2.33;;
11539;SDS011;5826;54.756;9.192;2023-04-03T05:39:56;2.80;;;2.10;;
11539;SDS011;5826;54.756;9.192;2023-04-03T05:42:22;3.50;;;2.60;;
11539;SDS011;5826;54.756;9.192;2023-04-03T05:44:48;4.17;;;2.70;;
11539;SDS011;5826;54.756;9.192;2023-04-03T05:47:15;4.30;;;2.50;;
11539;SDS011;5826;54.756;9.192;2023-04-03T05:49:40;5.47;;;2.60;;
11539;SDS011;5826;54.756;9.192;2023-04-03T05:52:10;2.97;;;2.57;;
11539;SDS011;5826;54.756;9.192;2023-04-03T05:54:50;4.53;;;2.30;;
11539;SDS011;5826;54.756;9.192;2023-04-03T05:57:16;6.07;;;2.93;;
11539;SDS011;5826;54.756;9.192;2023-04-03T05:59:42;2.90;;;2.27;;
11539;SDS011;5826;54.756;9.192;2023-04-03T06:02:12;3.50;;;2.37;;
11539;SDS011;5826;54.756;9.192;2023-04-03T06:04:38;3.57;;;2.30;;
11539;SDS011;5826;54.756;9.192;2023-04-03T06:07:04;2.70;;;2.10;;
11539;SDS011;5826;54.756;9.192;2023-04-03T06:09:30;4.70;;;2.80;;
11539;SDS011;5826;54.756;9.192;2023-04-03T06:11:55;3.07;;;2.67;;
11539;SDS011;5826;54.756;9.192;2023-04-03T06:14:23;3.20;;;2.57;;
11539;SDS011;5826;54.756;9.192;2023-04-03T06:16:49;4.60;;;2.20;;
11539;SDS011;5826;54.756;9.192;2023-04-03T06:19:15;3.43;;;2.43;;
11539;SDS011;5826;54.756;9.192;2023-04-03T06:21:41;3.80;;;2.33;;
11539;SDS011;5826;54.756;9.192;2023-04-03T06:24:06;2.70;;;2.20;;
11539;SDS011;5826;54.756;9.192;2023-04-03T06:26:32;5.53;;;2.57;;
11539;SDS011;5826;54.756;9.192;2023-04-03T06:28:58;4.33;;;2.63;;
11539;SDS011;5826;54.756;9.192;2023-04-03T06:31:24;2.80;;;2.43;;
11539;SDS011;5826;54.756;9.192;2023-04-03T06:33:50;3.90;;;2.60;;
11539;SDS011;5826;54.756;9.192;2023-04-03T06:36:17;3.07;;;2.47;;
11539;SDS011;5826;54.756;9.192;2023-04-03T06:38:45;3.63;;;2.80;;
11539;SDS011;5826;54.756;9.192;2023-04-03T06:41:11;3.00;;;2.63;;
11539;SDS011;5826;54.756;9.192;2023-04-03T06:43:37;2.67;;;2.17;;
11539;SDS011;5826;54.756;9.192;2023-04-03T06:46:02;4.07;;;2.53;;
11539;SDS011;5826;54.756;9.192;2023-04-03T06:48:28;2.53;;;1.97;;
11539;SDS011;5826;54.756;9.192;2023-04-03T06:50:54;4.97;;;2.20;;
11539;SDS011;5826;54.756;9.192;2023-04-03T06:53:20;3.30;;;2.00;;
11539;SDS011;5826;54.756;9.192;2023-04-03T06:55:46;2.40;;;2.00;;
11539;SDS011;5826;54.756;9.192;2023-04-03T06:58:12;2.90;;;2.00;;
11539;SDS011;5826;54.756;9.192;2023-04-03T07:00:38;3.63;;;1.80;;
11539;SDS011;5826;54.756;9.192;2023-04-03T07:03:04;2.87;;;2.13;;
11539;SDS011;5826;54.756;9.192;2023-04-03T07:05:30;4.83;;;2.30;;
11539;SDS011;5826;54.756;9.192;2023-04-03T07:07:56;2.40;;;1.80;;
11539;SDS011;5826;54.756;9.192;2023-04-03T07:10:21;2.47;;;1.90;;
11539;SDS011;5826;54.756;9.192;2023-04-03T07:12:47;3.83;;;2.20;;
11539;SDS011;5826;54.756;9.192;2023-04-03T07:15:12;2.70;;;1.93;;
11539;SDS011;5826;54.756;9.192;2023-04-03T07:17:39;4.03;;;1.97;;
11539;SDS011;5826;54.756;9.192;2023-04-03T07:20:05;3.20;;;2.20;;
11539;SDS011;5826;54.756;9.192;2023-04-03T07:22:31;3.50;;;2.23;;
11539;SDS011;5826;54.756;9.192;2023-04-03T07:24:57;2.30;;;1.90;;
11539;SDS011;5826;54.756;9.192;2023-04-03T07:27:23;3.33;;;2.10;;
11539;SDS011;5826;54.756;9.192;2023-04-03T07:29:50;3.70;;;1.80;;
11539;SDS011;5826;54.756;9.192;2023-04-03T07:32:15;2.60;;;2.00;;
11539;SDS011;5826;54.756;9.192;2023-04-03T07:34:42;4.73;;;2.30;;
11539;SDS011;5826;54.756;9.192;2023-04-03T07:37:08;2.97;;;1.93;;
11539;SDS011;5826;54.756;9.192;2023-04-03T07:39:34;3.40;;;2.20;;
11539;SDS011;5826;54.756;9.192;2023-04-03T07:42:00;2.60;;;1.80;;
11539;SDS011;5826;54.756;9.192;2023-04-03T07:44:26;3.60;;;2.30;;
11539;SDS011;5826;54.756;9.192;2023-04-03T07:46:52;4.93;;;2.23;;
11539;SDS011;5826;54.756;9.192;2023-04-03T07:49:17;3.30;;;2.20;;
11539;SDS011;5826;54.756;9.192;2023-04-03T07:51:43;3.53;;;2.50;;
11539;SDS011;5826;54.756;9.192;2023-04-03T07:54:09;5.53;;;2.33;;
11539;SDS011;5826;54.756;9.192;2023-04-03T07:56:35;3.07;;;2.20;;
11539;SDS011;5826;54.756;9.192;2023-04-03T07:59:01;3.13;;;1.90;;
11539;SDS011;5826;54.756;9.192;2023-04-03T08:01:27;2.53;;;1.60;;
11539;SDS011;5826;54.756;9.192;2023-04-03T08:03:52;2.07;;;1.60;;
11539;SDS011;5826;54.756;9.192;2023-04-03T08:06:18;2.80;;;1.67;;
11539;SDS011;5826;54.756;9.192;2023-04-03T08:08:43;2.17;;;1.80;;
11539;SDS011;5826;54.756;9.192;2023-04-03T08:11:09;3.10;;;1.90;;
11539;SDS011;5826;54.756;9.192;2023-04-03T08:13:35;3.07;;;1.87;;
11539;SDS011;5826;54.756;9.192;2023-04-03T08:16:07;2.40;;;1.60;;
11539;SDS011;5826;54.756;9.192;2023-04-03T08:18:45;2.80;;;1.80;;
11539;SDS011;5826;54.756;9.192;2023-04-03T08:21:11;2.80;;;1.80;;
11539;SDS011;5826;54.756;9.192;2023-04-03T08:23:37;2.20;;;1.70;;
11539;SDS011;5826;54.756;9.192;2023-04-03T08:26:07;5.27;;;1.90;;
11539;SDS011;5826;54.756;9.192;2023-04-03T08:28:38;2.47;;;1.30;;
11539;SDS011;5826;54.756;9.192;2023-04-03T08:31:05;3.17;;;1.53;;
11539;SDS011;5826;54.756;9.192;2023-04-03T08:33:32;2.27;;;1.83;;
11539;SDS011;5826;54.756;9.192;2023-04-03T08:36:01;2.30;;;1.63;;
11539;SDS011;5826;54.756;9.192;2023-04-03T08:38:28;2.67;;;1.40;;
11539;SDS011;5826;54.756;9.192;2023-04-03T08:41:29;2.80;;;1.47;;
11539;SDS011;5826;54.756;9.192;2023-04-03T08:43:59;3.60;;;1.50;;
11539;SDS011;5826;54.756;9.192;2023-04-03T08:47:02;4.23;;;1.63;;
11539;SDS011;5826;54.756;9.192;2023-04-03T08:49:39;4.47;;;2.00;;
11539;SDS011;5826;54.756;9.192;2023-04-03T08:52:20;3.13;;;1.67;;
11539;SDS011;5826;54.756;9.192;2023-04-03T08:54:57;2.73;;;1.50;;
11539;SDS011;5826;54.756;9.192;2023-04-03T08:57:29;2.43;;;1.40;;
11539;SDS011;5826;54.756;9.192;2023-04-03T08:59:59;2.00;;;1.70;;
11539;SDS011;5826;54.756;9.192;2023-04-03T09:02:45;2.20;;;1.70;;
11539;SDS011;5826;54.756;9.192;2023-04-03T09:05:14;2.30;;;1.87;;
11539;SDS011;5826;54.756;9.192;2023-04-03T09:07:43;3.10;;;1.80;;
11539;SDS011;5826;54.756;9.192;2023-04-03T09:10:13;2.63;;;1.50;;
11539;SDS011;5826;54.756;9.192;2023-04-03T09:12:44;1.23;;;1.13;;
11539;SDS011;5826;54.756;9.192;2023-04-03T09:15:17;2.73;;;1.70;;
11539;SDS011;5826;54.756;9.192;2023-04-03T09:18:03;1.57;;;1.33;;
11539;SDS011;5826;54.756;9.192;2023-04-03T09:23:30;3.30;;;1.57;;
11539;SDS011;5826;54.756;9.192;2023-04-03T09:26:11;2.20;;;1.40;;
11539;SDS011;5826;54.756;9.192;2023-04-03T09:28:42;2.43;;;1.50;;
11539;SDS011;5826;54.756;9.192;2023-04-03T09:31:26;2.83;;;1.57;;
11539;SDS011;5826;54.756;9.192;2023-04-03T09:34:06;2.57;;;1.67;;
11539;SDS011;5826;54.756;9.192;2023-04-03T09:36:51;2.10;;;1.47;;
11539;SDS011;5826;54.756;9.192;2023-04-03T09:39:21;1.63;;;1.40;;
11539;SDS011;5826;54.756;9.192;2023-04-03T09:42:04;1.90;;;1.40;;
11539;SDS011;5826;54.756;9.192;2023-04-03T09:44:38;1.63;;;1.10;;
11539;SDS011;5826;54.756;9.192;2023-04-03T09:47:18;1.73;;;1.23;;
11539;SDS011;5826;54.756;9.192;2023-04-03T09:52:39;2.37;;;1.20;;
11539;SDS011;5826;54.756;9.192;2023-04-03T09:55:08;1.13;;;0.80;;
11539;SDS011;5826;54.756;9.192;2023-04-03T09:57:38;2.93;;;1.00;;
11539;SDS011;5826;54.756;9.192;2023-04-03T10:00:05;1.13;;;0.87;;
11539;SDS011;5826;54.756;9.192;2023-04-03T10:05:02;1.90;;;0.83;;
11539;SDS011;5826;54.756;9.192;2023-04-03T10:07:33;1.63;;;0.90;;
11539;SDS011;5826;54.756;9.192;2023-04-03T10:10:19;2.17;;;1.20;;
11539;SDS011;5826;54.756;9.192;2023-04-03T10:12:48;1.43;;;0.90;;
11539;SDS011;5826;54.756;9.192;2023-04-03T10:15:27;1.20;;;0.90;;
11539;SDS011;5826;54.756;9.192;2023-04-03T10:18:06;1.30;;;0.90;;
11539;SDS011;5826;54.756;9.192;2023-04-03T10:20:44;1.00;;;0.90;;
11539;SDS011;5826;54.756;9.192;2023-04-03T10:25:55;1.88;;;0.95;;
11539;SDS011;5826;54.756;9.192;2023-04-03T10:28:31;2.30;;;1.10;;
11539;SDS011;5826;54.756;9.192;2023-04-03T10:39:04;2.97;;;1.02;;
11539;SDS011;5826;54.756;9.192;2023-04-03T10:41:43;1.38;;;1.20;;
11539;SDS011;5826;54.756;9.192;2023-04-03T10:44:31;3.40;;;1.00;;
11539;SDS011;5826;54.756;9.192;2023-04-03T10:47:21;1.95;;;1.10;;
11539;SDS011;5826;54.756;9.192;2023-04-03T10:50:00;1.75;;;0.90;;
11539;SDS011;5826;54.756;9.192;2023-04-03T10:52:41;1.52;;;1.05;;
11539;SDS011;5826;54.756;9.192;2023-04-03T10:55:21;1.20;;;0.90;;
11539;SDS011;5826;54.756;9.192;2023-04-03T10:57:57;1.80;;;1.20;;
11539;SDS011;5826;54.756;9.192;2023-04-03T11:00:30;1.75;;;1.13;;
11539;SDS011;5826;54.756;9.192;2023-04-03T11:02:57;1.90;;;1.20;;
11539;SDS011;5826;54.756;9.192;2023-04-03T11:05:44;1.77;;;1.00;;
11539;SDS011;5826;54.756;9.192;2023-04-03T11:08:16;1.73;;;0.90;;
11539;SDS011;5826;54.756;9.192;2023-04-03T11:11:07;1.40;;;0.90;;
11539;SDS011;5826;54.756;9.192;2023-04-03T11:13:48;2.08;;;1.30;;
11539;SDS011;5826;54.756;9.192;2023-04-03T11:16:20;1.75;;;1.08;;
11539;SDS011;5826;54.756;9.192;2023-04-03T11:18:52;2.50;;;1.60;;
11539;SDS011;5826;54.756;9.192;2023-04-03T11:21:27;1.85;;;1.20;;
11539;SDS011;5826;54.756;9.192;2023-04-03T11:23:56;1.55;;;1.13;;
11539;SDS011;5826;54.756;9.192;2023-04-03T11:26:29;2.15;;;1.00;;
11539;SDS011;5826;54.756;9.192;2023-04-03T11:29:05;2.13;;;1.23;;
11539;SDS011;5826;54.756;9.192;2023-04-03T11:31:47;1.55;;;0.93;;
11539;SDS011;5826;54.756;9.192;2023-04-03T11:34:52;1.60;;;1.20;;
11539;SDS011;5826;54.756;9.192;2023-04-03T11:37:39;1.83;;;1.00;;
11539;SDS011;5826;54.756;9.192;2023-04-03T11:42:42;1.55;;;0.90;;
11539;SDS011;5826;54.756;9.192;2023-04-03T11:47:50;1.52;;;1.00;;
11539;SDS011;5826;54.756;9.192;2023-04-03T12:13:36;2.03;;;1.05;;
11539;SDS011;5826;54.756;9.192;2023-04-03T12:16:05;2.42;;;1.15;;
11539;SDS011;5826;54.756;9.192;2023-04-03T12:21:22;2.97;;;1.20;;
11539;SDS011;5826;54.756;9.192;2023-04-03T12:26:36;1.80;;;1.08;;
11539;SDS011;5826;54.756;9.192;2023-04-03T12:29:17;1.98;;;1.17;;
11539;SDS011;5826;54.756;9.192;2023-04-03T12:32:05;2.22;;;0.98;;
11539;SDS011;5826;54.756;9.192;2023-04-03T12:37:35;1.40;;;1.10;;
11539;SDS011;5826;54.756;9.192;2023-04-03T12:40:10;2.45;;;1.15;;
11539;SDS011;5826;54.756;9.192;2023-04-03T12:43:43;1.85;;;1.10;;
11539;SDS011;5826;54.756;9.192;2023-04-03T12:46:04;2.85;;;1.35;;
11539;SDS011;5826;54.756;9.192;2023-04-03T12:48:36;2.38;;;1.30;;
11539;SDS011;5826;54.756;9.192;2023-04-03T12:51:09;3.38;;;1.20;;
11539;SDS011;5826;54.756;9.192;2023-04-03T12:53:44;2.13;;;0.90;;
11539;SDS011;5826;54.756;9.192;2023-04-03T12:56:27;3.03;;;1.10;;
11539;SDS011;5826;54.756;9.192;2023-04-03T12:58:55;1.70;;;1.10;;
11539;SDS011;5826;54.756;9.192;2023-04-03T13:01:38;1.27;;;0.90;;
11539;SDS011;5826;54.756;9.192;2023-04-03T13:04:03;2.38;;;1.02;;
11539;SDS011;5826;54.756;9.192;2023-04-03T13:06:42;2.53;;;0.90;;
11539;SDS011;5826;54.756;9.192;2023-04-03T13:09:19;1.48;;;0.70;;
11539;SDS011;5826;54.756;9.192;2023-04-03T13:11:47;1.92;;;0.90;;
11539;SDS011;5826;54.756;9.192;2023-04-03T13:14:36;1.77;;;1.10;;
11539;SDS011;5826;54.756;9.192;2023-04-03T13:17:15;1.88;;;1.08;;
11539;SDS011;5826;54.756;9.192;2023-04-03T13:19:41;2.40;;;0.88;;
11539;SDS011;5826;54.756;9.192;2023-04-03T13:22:10;1.48;;;1.00;;
11539;SDS011;5826;54.756;9.192;2023-04-03T13:25:04;1.70;;;1.00;;
11539;SDS011;5826;54.756;9.192;2023-04-03T13:27:33;1.50;;;1.02;;
11539;SDS011;5826;54.756;9.192;2023-04-03T13:30:00;2.05;;;1.00;;
11539;SDS011;5826;54.756;9.192;2023-04-03T13:32:28;1.98;;;0.90;;
11539;SDS011;5826;54.756;9.192;2023-04-03T13:34:56;1.55;;;1.00;;
11539;SDS011;5826;54.756;9.192;2023-04-03T13:39:59;2.22;;;1.10;;
11539;SDS011;5826;54.756;9.192;2023-04-03T13:42:29;2.95;;;0.98;;
11539;SDS011;5826;54.756;9.192;2023-04-03T13:48:06;1.25;;;0.93;;
11539;SDS011;5826;54.756;9.192;2023-04-03T13:51:04;2.53;;;1.20;;
11539;SDS011;5826;54.756;9.192;2023-04-03T13:53:31;2.22;;;1.33;;
11539;SDS011;5826;54.756;9.192;2023-04-03T13:58:32;2.50;;;1.17;;
11539;SDS011;5826;54.756;9.192;2023-04-03T14:03:44;3.63;;;1.10;;
11539;SDS011;5826;54.756;9.192;2023-04-03T14:06:13;2.50;;;1.00;;
11539;SDS011;5826;54.756;9.192;2023-04-03T14:08:40;2.72;;;1.10;;
11539;SDS011;5826;54.756;9.192;2023-04-03T14:11:08;3.60;;;1.23;;
11539;SDS011;5826;54.756;9.192;2023-04-03T14:13:39;2.72;;;1.30;;
11539;SDS011;5826;54.756;9.192;2023-04-03T14:16:04;2.67;;;1.23;;
11539;SDS011;5826;54.756;9.192;2023-04-03T14:18:31;1.90;;;0.98;;
11539;SDS011;5826;54.756;9.192;2023-04-03T14:20:56;1.67;;;1.13;;
11539;SDS011;5826;54.756;9.192;2023-04-03T14:23:22;2.42;;;1.30;;
11539;SDS011;5826;54.756;9.192;2023-04-03T14:25:47;2.85;;;1.20;;
11539;SDS011;5826;54.756;9.192;2023-04-03T14:28:15;3.53;;;0.85;;
11539;SDS011;5826;54.756;9.192;2023-04-03T14:30:46;2.92;;;1.20;;
11539;SDS011;5826;54.756;9.192;2023-04-03T14:33:14;2.50;;;1.10;;
11539;SDS011;5826;54.756;9.192;2023-04-03T14:35:42;2.15;;;1.10;;
11539;SDS011;5826;54.756;9.192;2023-04-03T14:38:27;1.88;;;1.10;;
11539;SDS011;5826;54.756;9.192;2023-04-03T14:40:54;1.67;;;1.00;;
11539;SDS011;5826;54.756;9.192;2023-04-03T14:43:20;2.90;;;1.17;;
11539;SDS011;5826;54.756;9.192;2023-04-03T14:45:46;2.97;;;1.23;;
11539;SDS011;5826;54.756;9.192;2023-04-03T14:48:15;1.70;;;1.20;;
11539;SDS011;5826;54.756;9.192;2023-04-03T14:50:44;1.70;;;1.10;;
11539;SDS011;5826;54.756;9.192;2023-04-03T14:53:10;1.83;;;1.20;;
11539;SDS011;5826;54.756;9.192;2023-04-03T14:55:37;1.42;;;0.93;;
11539;SDS011;5826;54.756;9.192;2023-04-03T14:58:03;1.73;;;1.10;;
11539;SDS011;5826;54.756;9.192;2023-04-03T15:00:30;2.10;;;1.20;;
11539;SDS011;5826;54.756;9.192;2023-04-03T15:02:55;2.08;;;1.20;;
11539;SDS011;5826;54.756;9.192;2023-04-03T15:05:21;2.20;;;1.20;;
11539;SDS011;5826;54.756;9.192;2023-04-03T15:07:50;2.05;;;1.05;;
11539;SDS011;5826;54.756;9.192;2023-04-03T15:10:21;3.42;;;1.50;;
11539;SDS011;5826;54.756;9.192;2023-04-03T15:12:48;2.03;;;1.13;;
11539;SDS011;5826;54.756;9.192;2023-04-03T15:15:15;2.05;;;1.23;;
11539;SDS011;5826;54.756;9.192;2023-04-03T15:17:42;1.38;;;0.95;;
11539;SDS011;5826;54.756;9.192;2023-04-03T15:20:15;2.60;;;1.25;;
11539;SDS011;5826;54.756;9.192;2023-04-03T15:22:42;1.35;;;1.08;;
11539;SDS011;5826;54.756;9.192;2023-04-03T15:25:08;1.83;;;1.15;;
11539;SDS011;5826;54.756;9.192;2023-04-03T15:27:34;2.28;;;1.25;;
11539;SDS011;5826;54.756;9.192;2023-04-03T15:30:01;1.65;;;0.90;;
11539;SDS011;5826;54.756;9.192;2023-04-03T15:32:27;1.77;;;0.95;;
11539;SDS011;5826;54.756;9.192;2023-04-03T15:34:53;1.08;;;0.85;;
11539;SDS011;5826;54.756;9.192;2023-04-03T15:37:19;1.25;;;0.88;;
11539;SDS011;5826;54.756;9.192;2023-04-03T15:39:45;2.53;;;1.15;;
11539;SDS011;5826;54.756;9.192;2023-04-03T15:42:10;1.35;;;0.85;;
11539;SDS011;5826;54.756;9.192;2023-04-03T15:44:37;1.60;;;1.10;;
11539;SDS011;5826;54.756;9.192;2023-04-03T15:47:03;1.20;;;0.80;;
11539;SDS011;5826;54.756;9.192;2023-04-03T15:49:28;3.03;;;1.30;;
11539;SDS011;5826;54.756;9.192;2023-04-03T15:51:55;1.65;;;1.13;;
11539;SDS011;5826;54.756;9.192;2023-04-03T15:54:21;2.28;;;1.02;;
11539;SDS011;5826;54.756;9.192;2023-04-03T15:56:48;1.60;;;0.80;;
11539;SDS011;5826;54.756;9.192;2023-04-03T15:59:14;2.55;;;1.30;;
11539;SDS011;5826;54.756;9.192;2023-04-03T16:01:40;2.75;;;1.10;;
11539;SDS011;5826;54.756;9.192;2023-04-03T16:04:07;2.13;;;1.30;;
11539;SDS011;5826;54.756;9.192;2023-04-03T16:06:34;2.78;;;1.25;;
11539;SDS011;5826;54.756;9.192;2023-04-03T16:09:01;2.15;;;1.30;;
11539;SDS011;5826;54.756;9.192;2023-04-03T16:11:26;3.05;;;1.02;;
11539;SDS011;5826;54.756;9.192;2023-04-03T16:13:53;2.42;;;1.15;;
11539;SDS011;5826;54.756;9.192;2023-04-03T16:16:19;1.70;;;1.17;;
11539;SDS011;5826;54.756;9.192;2023-04-03T16:18:45;3.33;;;1.00;;
11539;SDS011;5826;54.756;9.192;2023-04-03T16:21:11;2.05;;;1.05;;
11539;SDS011;5826;54.756;9.192;2023-04-03T16:23:39;2.38;;;1.10;;
11539;SDS011;5826;54.756;9.192;2023-04-03T16:26:05;1.80;;;1.15;;